createdAt,value
2023-12-17T00:02:01.097Z,4.60
2023-12-17T00:04:28.122Z,4.75
2023-12-17T00:06:55.318Z,4.68
2023-12-17T00:09:22.761Z,6.07
2023-12-17T00:11:51.156Z,4.63
2023-12-17T00:14:19.479Z,5.80
2023-12-17T00:16:46.580Z,5.43
2023-12-17T00:19:14.134Z,4.38
2023-12-17T00:21:41.080Z,6.55
2023-12-17T00:24:08.440Z,5.07
2023-12-17T00:26:35.600Z,5.32
2023-12-17T00:29:02.421Z,4.78
2023-12-17T00:31:29.430Z,3.95
2023-12-17T00:33:58.721Z,5.10
2023-12-17T00:36:25.770Z,4.90
2023-12-17T00:38:53.284Z,5.25
2023-12-17T00:41:20.186Z,4.75
2023-12-17T00:43:47.369Z,4.60
2023-12-17T00:46:14.310Z,3.92
2023-12-17T00:48:41.486Z,5.63
2023-12-17T00:51:12.192Z,5.13
2023-12-17T00:53:39.403Z,3.90
2023-12-17T00:56:06.776Z,4.70
2023-12-17T00:58:33.597Z,4.28
2023-12-17T01:01:02.810Z,4.53
2023-12-17T01:03:30.282Z,3.88
2023-12-17T01:05:58.176Z,3.72
2023-12-17T01:08:25.165Z,3.97
2023-12-17T01:10:52.505Z,3.83
2023-12-17T01:13:19.497Z,4.20
2023-12-17T01:15:49.707Z,3.88
2023-12-17T01:18:17.039Z,5.28
2023-12-17T01:20:44.670Z,4.20
2023-12-17T01:23:12.994Z,4.38
2023-12-17T01:25:39.785Z,4.35
2023-12-17T01:28:07.015Z,5.63
2023-12-17T01:30:35.035Z,3.42
2023-12-17T01:33:02.575Z,4.78
2023-12-17T01:35:29.681Z,4.82
2023-12-17T01:37:56.435Z,3.90
2023-12-17T01:40:23.202Z,4.10
2023-12-17T01:42:54.274Z,4.22
2023-12-17T01:45:21.589Z,3.70
2023-12-17T01:47:49.059Z,3.80
2023-12-17T01:50:17.128Z,3.22
2023-12-17T01:52:44.447Z,3.67
2023-12-17T01:55:11.429Z,4.65
2023-12-17T01:57:38.690Z,4.13
2023-12-17T02:00:06.442Z,4.40
2023-12-17T02:02:33.368Z,3.63
2023-12-17T02:05:02.577Z,4.13
2023-12-17T02:07:29.627Z,3.58
2023-12-17T02:09:58.909Z,3.63
2023-12-17T02:12:31.158Z,3.90
2023-12-17T02:14:59.155Z,4.28
2023-12-17T02:17:30.527Z,4.25
2023-12-17T02:20:00.390Z,3.95
2023-12-17T02:22:27.781Z,3.92
2023-12-17T02:24:54.873Z,4.35
2023-12-17T02:27:23.694Z,3.95
2023-12-17T02:29:51.703Z,4.55
2023-12-17T02:32:18.792Z,4.63
2023-12-17T02:34:45.741Z,3.70
2023-12-17T02:37:13.311Z,4.05
2023-12-17T02:39:40.219Z,3.50
2023-12-17T02:42:07.532Z,3.03
2023-12-17T02:44:34.765Z,3.70
2023-12-17T02:47:01.892Z,3.38
2023-12-17T02:49:29.201Z,2.90
2023-12-17T02:51:56.566Z,3.08
2023-12-17T02:54:24.530Z,3.03
2023-12-17T02:56:52.588Z,2.72
2023-12-17T02:59:19.447Z,2.95
2023-12-17T03:01:46.922Z,2.97
2023-12-17T03:04:14.000Z,3.33
2023-12-17T03:06:41.433Z,3.08
2023-12-17T03:09:08.388Z,3.40
2023-12-17T03:11:35.859Z,3.10
2023-12-17T03:14:02.811Z,2.95
2023-12-17T03:16:31.223Z,3.25
2023-12-17T03:18:58.742Z,2.55
2023-12-17T03:21:28.123Z,3.13
2023-12-17T03:23:55.198Z,2.67
2023-12-17T03:26:22.368Z,3.50
2023-12-17T03:28:49.973Z,2.70
2023-12-17T03:31:17.653Z,2.70
2023-12-17T03:33:45.361Z,2.30
2023-12-17T03:36:18.965Z,2.55
2023-12-17T03:38:46.591Z,2.80
2023-12-17T03:41:24.409Z,3.05
2023-12-17T03:43:52.823Z,2.10
2023-12-17T03:46:21.141Z,2.80
2023-12-17T03:48:48.193Z,2.85
2023-12-17T03:51:16.544Z,2.80
2023-12-17T03:53:43.752Z,2.50
2023-12-17T03:56:14.086Z,3.03
2023-12-17T03:58:41.274Z,2.30
2023-12-17T04:01:09.070Z,2.50
2023-12-17T04:03:36.064Z,2.60
2023-12-17T04:06:05.032Z,2.42
2023-12-17T04:08:31.944Z,2.38
2023-12-17T04:10:58.817Z,2.42
2023-12-17T04:13:27.505Z,3.08
2023-12-17T04:15:54.904Z,2.95
2023-12-17T04:18:22.440Z,2.88
2023-12-17T04:20:49.426Z,2.88
2023-12-17T04:23:16.650Z,3.83
2023-12-17T04:25:43.535Z,2.80
2023-12-17T04:28:10.691Z,2.92
2023-12-17T04:30:37.866Z,2.78
2023-12-17T04:33:05.368Z,2.92
2023-12-17T04:35:32.321Z,3.55
2023-12-17T04:37:59.505Z,3.15
2023-12-17T04:40:26.862Z,2.80
2023-12-17T04:42:53.961Z,3.33
2023-12-17T04:45:21.087Z,3.13
2023-12-17T04:47:47.949Z,3.90
2023-12-17T04:50:14.841Z,3.40
2023-12-17T04:52:41.745Z,3.10
2023-12-17T04:55:08.978Z,4.30
2023-12-17T04:57:35.740Z,3.20
2023-12-17T05:00:04.848Z,3.55
2023-12-17T05:02:31.981Z,3.03
2023-12-17T05:04:58.956Z,3.00
2023-12-17T05:07:25.791Z,2.90
2023-12-17T05:09:53.784Z,2.88
2023-12-17T05:12:20.646Z,2.42
2023-12-17T05:14:48.541Z,2.30
2023-12-17T05:17:15.828Z,2.88
2023-12-17T05:19:42.921Z,8.10
2023-12-17T05:22:10.154Z,2.90
2023-12-17T05:24:37.052Z,2.83
2023-12-17T05:27:04.178Z,3.50
2023-12-17T05:29:31.416Z,2.78
2023-12-17T05:31:58.601Z,2.47
2023-12-17T05:34:26.806Z,3.38
2023-12-17T05:36:53.778Z,3.05
2023-12-17T05:39:20.668Z,3.00
2023-12-17T05:41:47.548Z,3.30
2023-12-17T05:44:14.454Z,2.70
2023-12-17T05:46:41.459Z,3.65
2023-12-17T05:49:24.264Z,2.53
2023-12-17T05:51:59.501Z,2.47
2023-12-17T05:54:26.312Z,2.67
2023-12-17T05:56:53.111Z,2.45
2023-12-17T05:59:19.934Z,2.70
2023-12-17T06:01:47.020Z,2.88
2023-12-17T06:04:14.098Z,3.03
2023-12-17T06:06:41.006Z,2.63
2023-12-17T06:09:08.463Z,2.90
2023-12-17T06:11:35.790Z,2.92
2023-12-17T06:14:04.293Z,2.70
2023-12-17T06:16:31.197Z,2.58
2023-12-17T06:18:58.513Z,2.40
2023-12-17T06:21:26.409Z,2.63
2023-12-17T06:23:58.413Z,2.63
2023-12-17T06:26:25.835Z,4.10
2023-12-17T06:28:52.738Z,2.33
2023-12-17T06:31:19.975Z,3.00
2023-12-17T06:33:47.623Z,3.58
2023-12-17T06:36:14.810Z,2.30
2023-12-17T06:38:41.959Z,2.60
2023-12-17T06:41:11.207Z,2.05
2023-12-17T06:43:38.472Z,2.38
2023-12-17T06:46:08.072Z,2.60
2023-12-17T06:48:35.532Z,2.45
2023-12-17T06:51:03.008Z,2.22
2023-12-17T06:53:30.212Z,2.00
2023-12-17T06:55:57.509Z,2.17
2023-12-17T06:58:24.642Z,2.08
2023-12-17T07:00:51.621Z,2.20
2023-12-17T07:03:19.725Z,2.10
2023-12-17T07:05:46.899Z,1.58
2023-12-17T07:08:13.781Z,2.30
2023-12-17T07:10:41.069Z,2.35
2023-12-17T07:13:08.021Z,2.03
2023-12-17T07:15:36.000Z,2.58
2023-12-17T07:18:02.897Z,2.00
2023-12-17T07:20:30.076Z,1.98
2023-12-17T07:22:56.978Z,2.63
2023-12-17T07:25:25.621Z,2.42
2023-12-17T07:27:53.330Z,3.22
2023-12-17T07:30:20.760Z,2.45
2023-12-17T07:32:48.933Z,2.10
2023-12-17T07:35:24.109Z,2.30
2023-12-17T07:37:52.612Z,2.40
2023-12-17T07:40:19.447Z,2.00
2023-12-17T07:42:46.353Z,2.50
2023-12-17T07:45:13.366Z,2.83
2023-12-17T07:47:43.391Z,2.60
2023-12-17T07:50:12.200Z,2.97
2023-12-17T07:52:39.203Z,2.50
2023-12-17T07:55:06.519Z,2.80
2023-12-17T07:58:13.817Z,2.92
2023-12-17T08:00:41.270Z,2.47
2023-12-17T08:03:09.113Z,2.58
2023-12-17T08:05:36.234Z,3.67
2023-12-17T08:08:08.210Z,2.83
2023-12-17T08:10:35.322Z,2.58
2023-12-17T08:13:02.215Z,3.20
2023-12-17T08:15:29.033Z,3.17
2023-12-17T08:17:56.676Z,3.00
2023-12-17T08:20:33.576Z,3.25
2023-12-17T08:23:00.609Z,2.42
2023-12-17T08:25:27.495Z,2.25
2023-12-17T08:27:54.250Z,3.03
2023-12-17T08:30:21.450Z,2.35
2023-12-17T08:32:53.491Z,2.10
2023-12-17T08:35:20.792Z,2.20
2023-12-17T08:37:47.922Z,2.28
2023-12-17T08:40:16.220Z,2.40
2023-12-17T08:42:44.827Z,2.20
2023-12-17T08:45:45.432Z,2.17
2023-12-17T08:48:13.557Z,1.60
2023-12-17T08:50:52.188Z,2.22
2023-12-17T08:53:24.884Z,2.05
2023-12-17T08:55:53.531Z,1.92
2023-12-17T08:59:09.645Z,1.98
2023-12-17T09:01:37.759Z,2.10
2023-12-17T09:04:04.833Z,1.88
2023-12-17T09:06:32.358Z,1.92
2023-12-17T09:08:59.557Z,1.83
2023-12-17T09:11:52.639Z,2.22
2023-12-17T09:14:19.788Z,2.20
2023-12-17T09:16:46.531Z,1.40
2023-12-17T09:19:14.383Z,2.05
2023-12-17T09:21:41.498Z,3.90
2023-12-17T09:24:08.507Z,1.65
2023-12-17T09:26:35.384Z,1.83
2023-12-17T09:29:02.132Z,1.85
2023-12-17T09:31:28.980Z,1.88
2023-12-17T09:33:55.860Z,1.75
2023-12-17T09:36:26.822Z,2.08
2023-12-17T09:38:53.791Z,2.08
2023-12-17T09:41:20.906Z,3.50
2023-12-17T09:43:47.927Z,1.73
2023-12-17T09:46:14.691Z,2.00
2023-12-17T09:48:43.669Z,2.40
2023-12-17T09:51:12.514Z,2.38
2023-12-17T09:53:42.258Z,2.60
2023-12-17T09:56:27.663Z,4.47
2023-12-17T09:58:54.376Z,2.40
2023-12-17T10:01:21.437Z,2.72
2023-12-17T10:03:48.685Z,3.03
2023-12-17T10:06:17.440Z,2.65
2023-12-17T10:08:44.608Z,2.60
2023-12-17T10:11:11.694Z,1.95
2023-12-17T10:13:38.523Z,2.67
2023-12-17T10:16:05.670Z,2.60
2023-12-17T10:18:33.435Z,2.40
2023-12-17T10:21:00.441Z,2.22
2023-12-17T10:23:27.822Z,2.17
2023-12-17T10:26:02.295Z,2.88
2023-12-17T10:28:29.283Z,2.72
2023-12-17T10:30:56.156Z,2.47
2023-12-17T10:33:23.804Z,2.72
2023-12-17T10:35:50.872Z,2.58
2023-12-17T10:38:21.614Z,3.22
2023-12-17T10:40:48.409Z,2.53
2023-12-17T10:43:15.446Z,2.58
2023-12-17T10:45:43.596Z,2.22
2023-12-17T10:48:10.521Z,2.35
2023-12-17T10:50:37.462Z,2.03
2023-12-17T10:53:04.350Z,2.15
2023-12-17T10:55:32.073Z,2.63
2023-12-17T10:58:01.178Z,3.38
2023-12-17T11:00:30.461Z,3.25
2023-12-17T11:02:59.464Z,3.75
2023-12-17T11:05:27.092Z,2.97
2023-12-17T11:07:54.480Z,2.70
2023-12-17T11:10:21.902Z,3.63
2023-12-17T11:12:49.053Z,3.35
2023-12-17T11:15:16.072Z,3.20
2023-12-17T11:17:46.620Z,3.95
2023-12-17T11:20:14.089Z,4.15
2023-12-17T11:22:42.176Z,4.13
2023-12-17T11:25:11.254Z,3.33
2023-12-17T11:27:40.626Z,3.20
2023-12-17T11:30:31.085Z,3.50
2023-12-17T11:33:00.435Z,2.92
2023-12-17T11:35:29.610Z,3.47
2023-12-17T11:37:57.288Z,3.30
2023-12-17T11:40:24.432Z,3.03
2023-12-17T11:43:07.215Z,2.92
2023-12-17T11:45:36.246Z,2.92
2023-12-17T11:48:09.835Z,4.28
2023-12-17T11:50:55.872Z,4.13
2023-12-17T11:53:23.349Z,4.50
2023-12-17T11:55:52.027Z,3.97
2023-12-17T11:58:21.810Z,4.47
2023-12-17T12:01:06.968Z,4.20
2023-12-17T12:03:34.855Z,3.45
2023-12-17T12:06:07.212Z,3.38
2023-12-17T12:08:35.305Z,2.92
2023-12-17T12:11:03.856Z,2.58
2023-12-17T12:13:32.046Z,3.33
2023-12-17T12:15:59.521Z,3.60
2023-12-17T12:18:27.062Z,4.10
2023-12-17T12:20:55.735Z,3.55
2023-12-17T12:23:23.580Z,3.33
2023-12-17T12:25:52.116Z,3.72
2023-12-17T12:28:22.852Z,2.85
2023-12-17T12:30:52.527Z,2.58
2023-12-17T12:33:19.765Z,3.67
2023-12-17T12:35:48.976Z,2.50
2023-12-17T12:40:56.127Z,2.08
2023-12-17T12:43:23.790Z,2.10
2023-12-17T12:45:52.480Z,1.98
2023-12-17T12:48:24.753Z,2.08
2023-12-17T12:50:52.099Z,4.55
2023-12-17T12:53:25.841Z,1.55
2023-12-17T12:55:53.979Z,2.20
2023-12-17T12:58:21.107Z,1.55
2023-12-17T13:00:48.676Z,1.50
2023-12-17T13:03:15.684Z,1.50
2023-12-17T13:05:42.751Z,1.95
2023-12-17T13:08:09.601Z,1.17
2023-12-17T13:10:36.378Z,1.17
2023-12-17T13:13:03.226Z,1.92
2023-12-17T13:15:33.091Z,2.47
2023-12-17T13:18:02.042Z,1.65
2023-12-17T13:20:32.093Z,1.60
2023-12-17T13:22:58.923Z,2.20
2023-12-17T13:25:25.661Z,1.48
2023-12-17T13:27:52.598Z,2.50
2023-12-17T13:30:19.745Z,1.27
2023-12-17T13:32:47.125Z,0.98
2023-12-17T13:35:14.493Z,1.60
2023-12-17T13:37:43.795Z,1.77
2023-12-17T13:40:13.652Z,2.00
2023-12-17T13:42:40.769Z,1.77
2023-12-17T13:45:08.246Z,1.13
2023-12-17T13:47:34.956Z,1.48
2023-12-17T13:50:01.748Z,1.85
2023-12-17T13:52:28.658Z,1.45
2023-12-17T13:54:55.392Z,1.83
2023-12-17T13:57:22.287Z,1.30
2023-12-17T13:59:48.957Z,1.70
2023-12-17T14:02:16.010Z,1.85
2023-12-17T14:04:43.929Z,2.50
2023-12-17T14:07:10.803Z,2.00
2023-12-17T14:09:38.282Z,1.92
2023-12-17T14:12:05.465Z,2.30
2023-12-17T14:14:34.714Z,3.40
2023-12-17T14:17:02.324Z,3.65
2023-12-17T14:19:31.088Z,3.13
2023-12-17T14:21:57.979Z,3.00
2023-12-17T14:24:24.874Z,3.85
2023-12-17T14:26:51.761Z,3.15
2023-12-17T14:29:18.538Z,3.13
2023-12-17T14:31:45.558Z,3.25
2023-12-17T14:34:12.372Z,2.13
2023-12-17T14:36:39.828Z,3.80
2023-12-17T14:39:06.876Z,3.35
2023-12-17T14:41:33.846Z,3.17
2023-12-17T14:44:01.032Z,3.53
2023-12-17T14:46:27.997Z,3.95
2023-12-17T14:48:54.823Z,3.83
2023-12-17T14:51:21.601Z,4.03
2023-12-17T14:53:53.570Z,3.70
2023-12-17T14:56:25.330Z,3.70
2023-12-17T14:58:57.384Z,4.15
2023-12-17T15:01:31.734Z,4.07
2023-12-17T15:04:02.004Z,3.78
2023-12-17T15:06:28.796Z,4.35
2023-12-17T15:08:56.764Z,3.67
2023-12-17T15:11:23.889Z,4.40
2023-12-17T15:13:50.604Z,3.92
2023-12-17T15:16:17.400Z,4.43
2023-12-17T15:18:44.219Z,3.13
2023-12-17T15:21:16.728Z,2.85
2023-12-17T15:26:10.360Z,2.95
2023-12-17T15:28:37.732Z,3.38
2023-12-17T15:31:04.683Z,5.10
2023-12-17T15:33:32.033Z,6.28
2023-12-17T15:35:59.435Z,8.90
2023-12-17T15:38:26.302Z,8.02
2023-12-17T15:40:53.058Z,8.30
2023-12-17T15:43:19.768Z,6.63
2023-12-17T15:45:46.987Z,8.60
2023-12-17T15:48:14.097Z,4.65
2023-12-17T15:50:43.669Z,7.85
2023-12-17T15:53:10.363Z,7.05
2023-12-17T15:55:37.046Z,5.45
2023-12-17T15:58:04.257Z,5.63
2023-12-17T16:00:31.024Z,9.25
2023-12-17T16:02:58.112Z,7.90
2023-12-17T16:05:25.575Z,7.40
2023-12-17T16:07:52.499Z,6.43
2023-12-17T16:10:19.209Z,8.32
2023-12-17T16:12:46.019Z,8.25
2023-12-17T16:15:12.835Z,9.35
2023-12-17T16:17:39.662Z,8.63
2023-12-17T16:20:07.224Z,9.75
2023-12-17T16:22:33.949Z,8.95
2023-12-17T16:25:01.159Z,9.23
2023-12-17T16:27:27.949Z,7.97
2023-12-17T16:29:54.825Z,6.93
2023-12-17T16:32:22.601Z,7.35
2023-12-17T16:34:49.480Z,5.43
2023-12-17T16:37:16.382Z,5.82
2023-12-17T16:39:44.809Z,5.15
2023-12-17T16:42:11.529Z,5.70
2023-12-17T16:44:38.476Z,5.72
2023-12-17T16:47:05.667Z,5.15
2023-12-17T16:49:34.464Z,4.38
2023-12-17T16:52:02.551Z,4.78
2023-12-17T16:54:29.293Z,3.72
2023-12-17T16:56:56.205Z,4.45
2023-12-17T16:59:23.162Z,4.80
2023-12-17T17:01:54.753Z,5.15
2023-12-17T17:04:22.433Z,5.57
2023-12-17T17:06:49.305Z,5.78
2023-12-17T17:09:16.242Z,6.00
2023-12-17T17:11:43.655Z,5.47
2023-12-17T17:14:10.393Z,6.40
2023-12-17T17:16:37.249Z,5.45
2023-12-17T17:19:07.139Z,7.35
2023-12-17T17:21:34.533Z,7.15
2023-12-17T17:24:01.379Z,6.22
2023-12-17T17:26:28.185Z,6.63
2023-12-17T17:28:55.185Z,6.93
2023-12-17T17:31:22.000Z,6.07
2023-12-17T17:33:50.415Z,7.70
2023-12-17T17:36:18.538Z,6.63
2023-12-17T17:38:45.292Z,8.27
2023-12-17T17:41:13.660Z,7.15
2023-12-17T17:43:41.228Z,6.80
2023-12-17T17:46:09.649Z,7.22
2023-12-17T17:48:37.020Z,7.07
2023-12-17T17:51:05.476Z,7.50
2023-12-17T17:53:33.908Z,6.20
2023-12-17T17:56:00.946Z,6.78
2023-12-17T17:58:28.110Z,7.63
2023-12-17T18:00:55.729Z,7.25
2023-12-17T18:03:25.509Z,6.88
2023-12-17T18:05:53.427Z,6.75
2023-12-17T18:08:20.478Z,6.75
2023-12-17T18:10:47.313Z,6.93
2023-12-17T18:13:14.154Z,7.53
2023-12-17T18:15:41.030Z,7.05
2023-12-17T18:18:08.415Z,7.57
2023-12-17T18:20:35.786Z,8.15
2023-12-17T18:23:03.199Z,8.60
2023-12-17T18:25:30.030Z,7.13
2023-12-17T18:27:57.027Z,8.90
2023-12-17T18:30:23.827Z,9.07
2023-12-17T18:32:51.954Z,8.13
2023-12-17T18:35:18.814Z,7.72
2023-12-17T18:37:45.531Z,8.27
2023-12-17T18:40:12.735Z,9.15
2023-12-17T18:42:39.978Z,8.82
2023-12-17T18:45:08.451Z,8.50
2023-12-17T18:47:35.605Z,8.02
2023-12-17T18:50:05.804Z,9.27
2023-12-17T18:52:32.500Z,9.52
2023-12-17T18:55:01.460Z,10.20
2023-12-17T18:57:29.376Z,9.60
2023-12-17T18:59:56.689Z,11.18
2023-12-17T19:02:24.045Z,10.95
2023-12-17T19:04:51.141Z,12.60
2023-12-17T19:07:22.343Z,13.85
2023-12-17T19:09:50.496Z,13.50
2023-12-17T19:12:19.263Z,15.38
2023-12-17T19:14:46.590Z,14.20
2023-12-17T19:17:13.357Z,16.05
2023-12-17T19:19:40.113Z,16.13
2023-12-17T19:22:06.814Z,16.98
2023-12-17T19:24:33.557Z,15.75
2023-12-17T19:27:00.341Z,15.73
2023-12-17T19:29:27.109Z,16.35
2023-12-17T19:31:54.085Z,15.43
2023-12-17T19:34:21.351Z,14.00
2023-12-17T19:36:48.292Z,15.40
2023-12-17T19:39:15.008Z,13.57
2023-12-17T19:41:41.835Z,14.98
2023-12-17T19:44:08.481Z,13.77
2023-12-17T19:46:35.716Z,13.60
2023-12-17T19:49:03.125Z,15.38
2023-12-17T19:51:31.020Z,13.05
2023-12-17T19:53:58.261Z,12.63
2023-12-17T19:56:25.083Z,13.70
2023-12-17T19:58:51.911Z,12.65
2023-12-17T20:01:19.034Z,12.75
2023-12-17T20:03:48.767Z,12.80
2023-12-17T20:06:15.733Z,13.40
2023-12-17T20:08:42.538Z,14.18
2023-12-17T20:11:09.743Z,14.02
2023-12-17T20:13:36.435Z,15.57
2023-12-17T20:16:03.253Z,14.20
2023-12-17T20:18:30.276Z,17.10
2023-12-17T20:20:57.108Z,17.00
2023-12-17T20:23:23.837Z,16.02
2023-12-17T20:25:50.679Z,15.80
2023-12-17T20:28:17.408Z,18.63
2023-12-17T20:30:44.183Z,15.32
2023-12-17T20:33:13.057Z,15.43
2023-12-17T20:35:42.300Z,15.20
2023-12-17T20:38:10.980Z,14.05
2023-12-17T20:40:39.527Z,13.00
2023-12-17T20:43:06.678Z,11.52
2023-12-17T20:45:33.488Z,11.20
2023-12-17T20:48:00.389Z,11.48
2023-12-17T20:50:27.379Z,11.05
2023-12-17T20:52:54.321Z,12.88
2023-12-17T20:55:22.003Z,14.65
2023-12-17T20:57:48.706Z,14.00
2023-12-17T21:00:15.829Z,16.20
2023-12-17T21:02:42.726Z,12.73
2023-12-17T21:05:10.091Z,11.88
2023-12-17T21:07:37.691Z,12.43
2023-12-17T21:10:04.997Z,11.70
2023-12-17T21:12:31.621Z,12.23
2023-12-17T21:14:58.784Z,12.35
2023-12-17T21:17:25.573Z,11.23
2023-12-17T21:19:52.607Z,10.77
2023-12-17T21:22:19.460Z,12.30
2023-12-17T21:24:46.637Z,12.02
2023-12-17T21:27:21.915Z,12.25
2023-12-17T21:29:48.645Z,11.55
2023-12-17T21:32:15.385Z,10.85
2023-12-17T21:34:42.188Z,11.20
2023-12-17T21:37:09.382Z,10.57
2023-12-17T21:39:36.146Z,11.07
2023-12-17T21:42:03.117Z,11.07
2023-12-17T21:44:29.861Z,13.05
2023-12-17T21:46:56.879Z,12.75
2023-12-17T21:49:23.742Z,11.15
2023-12-17T21:51:50.400Z,12.48
2023-12-17T21:54:17.062Z,12.35
2023-12-17T21:57:15.901Z,12.82
2023-12-17T21:59:37.699Z,10.90
2023-12-17T22:02:05.217Z,10.65
2023-12-17T22:04:33.015Z,10.90
2023-12-17T22:06:59.732Z,11.57
2023-12-17T22:09:26.436Z,10.32
2023-12-17T22:11:53.134Z,10.45
2023-12-17T22:14:19.838Z,11.70
2023-12-17T22:16:46.547Z,10.63
2023-12-17T22:19:14.599Z,10.32
2023-12-17T22:21:41.444Z,9.55
2023-12-17T22:24:08.367Z,9.52
2023-12-17T22:26:35.036Z,9.65
2023-12-17T22:29:01.774Z,11.13
2023-12-17T22:31:28.621Z,9.93
2023-12-17T22:33:55.383Z,9.23
2023-12-17T22:36:22.104Z,10.10
2023-12-17T22:38:48.780Z,8.63
2023-12-17T22:41:15.522Z,9.73
2023-12-17T22:43:42.134Z,9.40
2023-12-17T22:46:08.771Z,10.05
2023-12-17T22:48:38.235Z,9.20
2023-12-17T22:51:05.103Z,9.63
2023-12-17T22:53:31.773Z,12.32
2023-12-17T22:55:58.582Z,9.45
2023-12-17T22:58:25.318Z,10.38
2023-12-17T23:00:53.975Z,10.07
2023-12-17T23:03:20.753Z,9.20
2023-12-17T23:05:47.490Z,9.95
2023-12-17T23:08:14.197Z,9.55
2023-12-17T23:10:40.993Z,8.60
2023-12-17T23:13:07.671Z,8.93
2023-12-17T23:15:34.908Z,9.52
2023-12-17T23:18:01.732Z,10.50
2023-12-17T23:20:28.501Z,9.80
2023-12-17T23:22:55.594Z,8.60
2023-12-17T23:25:22.588Z,9.30
2023-12-17T23:27:49.300Z,10.40
2023-12-17T23:30:16.159Z,8.68
2023-12-17T23:32:42.903Z,9.88
2023-12-17T23:35:09.662Z,8.75
2023-12-17T23:37:36.310Z,8.82
2023-12-17T23:40:03.314Z,9.30
2023-12-17T23:42:30.053Z,7.50
2023-12-17T23:45:05.255Z,7.95
2023-12-17T23:47:33.338Z,8.13
2023-12-17T23:50:00.052Z,7.70
2023-12-17T23:52:26.830Z,8.93
2023-12-17T23:54:53.538Z,8.23
2023-12-17T23:57:20.267Z,9.43
2023-12-17T23:59:46.989Z,8.95
